sensor_id;sensor_type;location;lat;lon;timestamp;P1;durP1;ratioP1;P2;durP2;ratioP2
52964;SDS011;42923;53.220;6.528;2023-06-14T00:00:19;9.70;;;2.00;;
52964;SDS011;42923;53.220;6.528;2023-06-14T00:02:45;3.17;;;1.75;;
52964;SDS011;42923;53.220;6.528;2023-06-14T00:05:11;3.95;;;2.10;;
52964;SDS011;42923;53.220;6.528;2023-06-14T00:07:38;7.43;;;2.25;;
52964;SDS011;42923;53.220;6.528;2023-06-14T00:10:08;4.50;;;1.67;;
52964;SDS011;42923;53.220;6.528;2023-06-14T00:12:35;4.43;;;2.00;;
52964;SDS011;42923;53.220;6.528;2023-06-14T00:15:01;9.00;;;1.80;;
52964;SDS011;42923;53.220;6.528;2023-06-14T00:17:28;5.70;;;2.42;;
52964;SDS011;42923;53.220;6.528;2023-06-14T00:19:57;4.18;;;1.75;;
52964;SDS011;42923;53.220;6.528;2023-06-14T00:22:23;6.05;;;2.45;;
52964;SDS011;42923;53.220;6.528;2023-06-14T00:24:50;8.05;;;2.17;;
52964;SDS011;42923;53.220;6.528;2023-06-14T00:27:16;4.82;;;1.80;;
52964;SDS011;42923;53.220;6.528;2023-06-14T00:29:43;5.35;;;1.70;;
52964;SDS011;42923;53.220;6.528;2023-06-14T00:32:08;3.58;;;2.42;;
52964;SDS011;42923;53.220;6.528;2023-06-14T00:34:34;4.40;;;1.67;;
52964;SDS011;42923;53.220;6.528;2023-06-14T00:37:00;5.10;;;2.78;;
52964;SDS011;42923;53.220;6.528;2023-06-14T00:39:26;4.78;;;1.98;;
52964;SDS011;42923;53.220;6.528;2023-06-14T00:41:52;4.18;;;1.73;;
52964;SDS011;42923;53.220;6.528;2023-06-14T00:44:19;4.82;;;1.95;;
52964;SDS011;42923;53.220;6.528;2023-06-14T00:46:46;2.22;;;1.58;;
52964;SDS011;42923;53.220;6.528;2023-06-14T00:49:14;9.57;;;2.00;;
52964;SDS011;42923;53.220;6.528;2023-06-14T00:51:41;3.10;;;1.35;;
52964;SDS011;42923;53.220;6.528;2023-06-14T00:54:07;10.85;;;1.60;;
52964;SDS011;42923;53.220;6.528;2023-06-14T00:56:35;2.83;;;1.40;;
52964;SDS011;42923;53.220;6.528;2023-06-14T00:59:02;4.78;;;1.65;;
52964;SDS011;42923;53.220;6.528;2023-06-14T01:01:31;2.33;;;1.60;;
52964;SDS011;42923;53.220;6.528;2023-06-14T01:04:00;1.95;;;1.60;;
52964;SDS011;42923;53.220;6.528;2023-06-14T01:09:26;6.80;;;2.13;;
52964;SDS011;42923;53.220;6.528;2023-06-14T01:12:01;2.50;;;1.35;;
52964;SDS011;42923;53.220;6.528;2023-06-14T01:14:41;2.72;;;1.55;;
52964;SDS011;42923;53.220;6.528;2023-06-14T01:17:07;5.15;;;1.65;;
52964;SDS011;42923;53.220;6.528;2023-06-14T01:19:41;3.83;;;1.63;;
52964;SDS011;42923;53.220;6.528;2023-06-14T01:22:13;4.07;;;1.60;;
52964;SDS011;42923;53.220;6.528;2023-06-14T01:24:40;6.55;;;1.60;;
52964;SDS011;42923;53.220;6.528;2023-06-14T01:27:10;4.50;;;1.67;;
52964;SDS011;42923;53.220;6.528;2023-06-14T01:29:37;7.85;;;2.13;;
52964;SDS011;42923;53.220;6.528;2023-06-14T01:32:03;4.20;;;1.77;;
52964;SDS011;42923;53.220;6.528;2023-06-14T01:34:30;3.40;;;1.60;;
52964;SDS011;42923;53.220;6.528;2023-06-14T01:36:56;6.15;;;1.55;;
52964;SDS011;42923;53.220;6.528;2023-06-14T01:39:25;5.07;;;2.15;;
52964;SDS011;42923;53.220;6.528;2023-06-14T01:41:51;4.40;;;2.03;;
52964;SDS011;42923;53.220;6.528;2023-06-14T01:44:17;4.30;;;2.03;;
52964;SDS011;42923;53.220;6.528;2023-06-14T01:46:44;7.70;;;1.88;;
52964;SDS011;42923;53.220;6.528;2023-06-14T01:49:10;5.72;;;2.00;;
52964;SDS011;42923;53.220;6.528;2023-06-14T01:51:37;4.07;;;2.15;;
52964;SDS011;42923;53.220;6.528;2023-06-14T01:54:02;4.72;;;1.70;;
52964;SDS011;42923;53.220;6.528;2023-06-14T01:56:30;5.88;;;2.05;;
52964;SDS011;42923;53.220;6.528;2023-06-14T01:58:56;3.15;;;2.05;;
52964;SDS011;42923;53.220;6.528;2023-06-14T02:01:22;2.90;;;1.77;;
52964;SDS011;42923;53.220;6.528;2023-06-14T02:03:48;3.47;;;1.67;;
52964;SDS011;42923;53.220;6.528;2023-06-14T02:06:15;3.17;;;1.65;;
52964;SDS011;42923;53.220;6.528;2023-06-14T02:08:43;4.57;;;1.80;;
52964;SDS011;42923;53.220;6.528;2023-06-14T02:11:10;4.60;;;2.10;;
52964;SDS011;42923;53.220;6.528;2023-06-14T02:13:35;8.23;;;1.77;;
52964;SDS011;42923;53.220;6.528;2023-06-14T02:16:01;4.05;;;1.92;;
52964;SDS011;42923;53.220;6.528;2023-06-14T02:18:27;2.50;;;1.70;;
52964;SDS011;42923;53.220;6.528;2023-06-14T02:20:55;4.40;;;2.20;;
52964;SDS011;42923;53.220;6.528;2023-06-14T02:23:21;5.47;;;2.35;;
52964;SDS011;42923;53.220;6.528;2023-06-14T02:25:46;6.88;;;2.40;;
52964;SDS011;42923;53.220;6.528;2023-06-14T02:28:12;3.65;;;1.98;;
52964;SDS011;42923;53.220;6.528;2023-06-14T02:30:38;5.07;;;2.33;;
52964;SDS011;42923;53.220;6.528;2023-06-14T02:33:04;5.35;;;2.30;;
52964;SDS011;42923;53.220;6.528;2023-06-14T02:35:31;5.78;;;1.90;;
52964;SDS011;42923;53.220;6.528;2023-06-14T02:37:57;8.75;;;2.88;;
52964;SDS011;42923;53.220;6.528;2023-06-14T02:40:23;6.47;;;2.20;;
52964;SDS011;42923;53.220;6.528;2023-06-14T02:42:49;3.70;;;2.10;;
52964;SDS011;42923;53.220;6.528;2023-06-14T02:45:15;5.80;;;2.28;;
52964;SDS011;42923;53.220;6.528;2023-06-14T02:47:42;6.95;;;2.33;;
52964;SDS011;42923;53.220;6.528;2023-06-14T02:50:07;4.00;;;2.95;;
52964;SDS011;42923;53.220;6.528;2023-06-14T02:52:34;5.30;;;2.25;;
52964;SDS011;42923;53.220;6.528;2023-06-14T02:54:59;4.18;;;2.15;;
52964;SDS011;42923;53.220;6.528;2023-06-14T02:57:25;5.93;;;2.70;;
52964;SDS011;42923;53.220;6.528;2023-06-14T02:59:51;4.68;;;2.15;;
52964;SDS011;42923;53.220;6.528;2023-06-14T03:02:18;4.50;;;2.03;;
52964;SDS011;42923;53.220;6.528;2023-06-14T03:04:44;5.13;;;2.10;;
52964;SDS011;42923;53.220;6.528;2023-06-14T03:07:14;4.40;;;2.20;;
52964;SDS011;42923;53.220;6.528;2023-06-14T03:09:45;3.92;;;2.40;;
52964;SDS011;42923;53.220;6.528;2023-06-14T03:12:11;5.93;;;2.65;;
52964;SDS011;42923;53.220;6.528;2023-06-14T03:14:37;4.10;;;2.78;;
52964;SDS011;42923;53.220;6.528;2023-06-14T03:17:03;5.35;;;2.70;;
52964;SDS011;42923;53.220;6.528;2023-06-14T03:19:31;6.75;;;2.50;;
52964;SDS011;42923;53.220;6.528;2023-06-14T03:21:57;5.45;;;2.60;;
52964;SDS011;42923;53.220;6.528;2023-06-14T03:24:24;7.63;;;2.63;;
52964;SDS011;42923;53.220;6.528;2023-06-14T03:26:54;5.82;;;2.60;;
52964;SDS011;42923;53.220;6.528;2023-06-14T03:29:20;6.72;;;3.03;;
52964;SDS011;42923;53.220;6.528;2023-06-14T03:31:57;3.20;;;2.47;;
52964;SDS011;42923;53.220;6.528;2023-06-14T03:37:00;5.60;;;2.78;;
52964;SDS011;42923;53.220;6.528;2023-06-14T03:39:27;7.60;;;2.33;;
52964;SDS011;42923;53.220;6.528;2023-06-14T03:41:53;5.22;;;3.25;;
52964;SDS011;42923;53.220;6.528;2023-06-14T03:44:19;4.47;;;2.72;;
52964;SDS011;42923;53.220;6.528;2023-06-14T03:46:45;9.55;;;2.83;;
52964;SDS011;42923;53.220;6.528;2023-06-14T03:49:12;11.75;;;3.10;;
52964;SDS011;42923;53.220;6.528;2023-06-14T03:51:38;4.20;;;2.85;;
52964;SDS011;42923;53.220;6.528;2023-06-14T03:54:05;6.93;;;2.65;;
52964;SDS011;42923;53.220;6.528;2023-06-14T03:56:32;6.45;;;2.38;;
52964;SDS011;42923;53.220;6.528;2023-06-14T03:58:58;3.50;;;2.65;;
52964;SDS011;42923;53.220;6.528;2023-06-14T04:01:26;5.00;;;2.40;;
52964;SDS011;42923;53.220;6.528;2023-06-14T04:03:57;8.40;;;2.88;;
52964;SDS011;42923;53.220;6.528;2023-06-14T04:06:24;8.50;;;3.08;;
52964;SDS011;42923;53.220;6.528;2023-06-14T04:08:57;5.63;;;3.63;;
52964;SDS011;42923;53.220;6.528;2023-06-14T04:11:27;4.03;;;2.58;;
52964;SDS011;42923;53.220;6.528;2023-06-14T04:13:53;4.38;;;2.83;;
52964;SDS011;42923;53.220;6.528;2023-06-14T04:16:21;6.15;;;3.08;;
52964;SDS011;42923;53.220;6.528;2023-06-14T04:18:47;4.78;;;2.85;;
52964;SDS011;42923;53.220;6.528;2023-06-14T04:21:16;7.95;;;2.22;;
52964;SDS011;42923;53.220;6.528;2023-06-14T04:23:42;4.32;;;2.75;;
52964;SDS011;42923;53.220;6.528;2023-06-14T04:26:09;5.05;;;3.00;;
52964;SDS011;42923;53.220;6.528;2023-06-14T04:28:36;7.63;;;2.92;;
52964;SDS011;42923;53.220;6.528;2023-06-14T04:31:06;6.40;;;2.67;;
52964;SDS011;42923;53.220;6.528;2023-06-14T04:33:36;7.43;;;2.58;;
52964;SDS011;42923;53.220;6.528;2023-06-14T04:36:11;6.57;;;2.75;;
52964;SDS011;42923;53.220;6.528;2023-06-14T04:38:38;4.95;;;3.50;;
52964;SDS011;42923;53.220;6.528;2023-06-14T04:41:04;4.50;;;3.15;;
52964;SDS011;42923;53.220;6.528;2023-06-14T04:43:31;4.88;;;3.00;;
52964;SDS011;42923;53.220;6.528;2023-06-14T04:46:04;5.40;;;2.78;;
52964;SDS011;42923;53.220;6.528;2023-06-14T04:48:40;3.60;;;2.47;;
52964;SDS011;42923;53.220;6.528;2023-06-14T04:51:09;3.10;;;2.50;;
52964;SDS011;42923;53.220;6.528;2023-06-14T04:53:35;4.95;;;2.95;;
52964;SDS011;42923;53.220;6.528;2023-06-14T04:56:01;9.38;;;3.30;;
52964;SDS011;42923;53.220;6.528;2023-06-14T04:58:29;5.75;;;2.75;;
52964;SDS011;42923;53.220;6.528;2023-06-14T05:00:55;7.78;;;2.92;;
52964;SDS011;42923;53.220;6.528;2023-06-14T05:03:24;5.72;;;3.15;;
52964;SDS011;42923;53.220;6.528;2023-06-14T05:05:50;8.32;;;2.83;;
52964;SDS011;42923;53.220;6.528;2023-06-14T05:08:18;16.20;;;2.80;;
52964;SDS011;42923;53.220;6.528;2023-06-14T05:10:49;6.20;;;3.13;;
52964;SDS011;42923;53.220;6.528;2023-06-14T05:13:15;5.90;;;3.35;;
52964;SDS011;42923;53.220;6.528;2023-06-14T05:15:41;7.75;;;3.67;;
52964;SDS011;42923;53.220;6.528;2023-06-14T05:18:07;7.05;;;3.40;;
52964;SDS011;42923;53.220;6.528;2023-06-14T05:20:34;6.65;;;3.20;;
52964;SDS011;42923;53.220;6.528;2023-06-14T05:23:02;8.43;;;3.15;;
52964;SDS011;42923;53.220;6.528;2023-06-14T05:25:28;4.47;;;3.15;;
52964;SDS011;42923;53.220;6.528;2023-06-14T05:27:53;4.97;;;3.05;;
52964;SDS011;42923;53.220;6.528;2023-06-14T05:30:19;7.90;;;3.47;;
52964;SDS011;42923;53.220;6.528;2023-06-14T05:32:45;4.93;;;3.08;;
52964;SDS011;42923;53.220;6.528;2023-06-14T05:35:11;4.95;;;3.08;;
52964;SDS011;42923;53.220;6.528;2023-06-14T05:37:37;5.70;;;3.50;;
52964;SDS011;42923;53.220;6.528;2023-06-14T05:40:03;4.78;;;2.80;;
52964;SDS011;42923;53.220;6.528;2023-06-14T05:42:32;7.28;;;4.38;;
52964;SDS011;42923;53.220;6.528;2023-06-14T05:44:58;6.78;;;3.58;;
52964;SDS011;42923;53.220;6.528;2023-06-14T05:47:24;6.53;;;4.00;;
52964;SDS011;42923;53.220;6.528;2023-06-14T05:49:50;5.97;;;3.38;;
52964;SDS011;42923;53.220;6.528;2023-06-14T05:52:16;8.05;;;3.30;;
52964;SDS011;42923;53.220;6.528;2023-06-14T05:54:42;7.45;;;3.53;;
52964;SDS011;42923;53.220;6.528;2023-06-14T05:57:07;13.35;;;3.45;;
52964;SDS011;42923;53.220;6.528;2023-06-14T05:59:33;6.47;;;3.75;;
52964;SDS011;42923;53.220;6.528;2023-06-14T06:01:59;6.90;;;3.55;;
52964;SDS011;42923;53.220;6.528;2023-06-14T06:04:25;5.60;;;3.28;;
52964;SDS011;42923;53.220;6.528;2023-06-14T06:06:51;8.30;;;3.85;;
52964;SDS011;42923;53.220;6.528;2023-06-14T06:09:16;5.32;;;3.55;;
52964;SDS011;42923;53.220;6.528;2023-06-14T06:11:42;4.88;;;3.30;;
52964;SDS011;42923;53.220;6.528;2023-06-14T06:14:07;6.13;;;3.30;;
52964;SDS011;42923;53.220;6.528;2023-06-14T06:16:33;9.82;;;3.65;;
52964;SDS011;42923;53.220;6.528;2023-06-14T06:18:59;6.40;;;3.90;;
52964;SDS011;42923;53.220;6.528;2023-06-14T06:21:25;7.68;;;3.80;;
52964;SDS011;42923;53.220;6.528;2023-06-14T06:23:51;4.97;;;3.60;;
52964;SDS011;42923;53.220;6.528;2023-06-14T06:26:17;6.50;;;3.00;;
52964;SDS011;42923;53.220;6.528;2023-06-14T06:28:42;6.18;;;3.63;;
52964;SDS011;42923;53.220;6.528;2023-06-14T06:31:08;8.38;;;3.63;;
52964;SDS011;42923;53.220;6.528;2023-06-14T06:33:35;5.63;;;3.75;;
52964;SDS011;42923;53.220;6.528;2023-06-14T06:36:00;4.93;;;3.05;;
52964;SDS011;42923;53.220;6.528;2023-06-14T06:38:26;7.75;;;3.30;;
52964;SDS011;42923;53.220;6.528;2023-06-14T06:40:51;5.93;;;3.08;;
52964;SDS011;42923;53.220;6.528;2023-06-14T06:43:19;4.15;;;2.90;;
52964;SDS011;42923;53.220;6.528;2023-06-14T06:45:47;6.55;;;3.22;;
52964;SDS011;42923;53.220;6.528;2023-06-14T06:48:13;4.47;;;2.92;;
52964;SDS011;42923;53.220;6.528;2023-06-14T06:50:39;3.92;;;2.88;;
52964;SDS011;42923;53.220;6.528;2023-06-14T06:53:04;4.50;;;2.83;;
52964;SDS011;42923;53.220;6.528;2023-06-14T06:55:31;8.05;;;2.75;;
52964;SDS011;42923;53.220;6.528;2023-06-14T06:57:57;5.07;;;3.25;;
52964;SDS011;42923;53.220;6.528;2023-06-14T07:00:23;3.97;;;2.85;;
52964;SDS011;42923;53.220;6.528;2023-06-14T07:02:49;5.30;;;3.05;;
52964;SDS011;42923;53.220;6.528;2023-06-14T07:05:16;7.10;;;3.10;;
52964;SDS011;42923;53.220;6.528;2023-06-14T07:07:41;4.93;;;3.08;;
52964;SDS011;42923;53.220;6.528;2023-06-14T07:10:07;4.80;;;3.08;;
52964;SDS011;42923;53.220;6.528;2023-06-14T07:12:33;5.57;;;2.60;;
52964;SDS011;42923;53.220;6.528;2023-06-14T07:15:01;5.22;;;2.80;;
52964;SDS011;42923;53.220;6.528;2023-06-14T07:17:28;6.35;;;3.17;;
52964;SDS011;42923;53.220;6.528;2023-06-14T07:19:54;6.68;;;2.45;;
52964;SDS011;42923;53.220;6.528;2023-06-14T07:22:20;7.43;;;2.72;;
52964;SDS011;42923;53.220;6.528;2023-06-14T07:24:45;3.75;;;2.30;;
52964;SDS011;42923;53.220;6.528;2023-06-14T07:27:11;6.07;;;2.72;;
52964;SDS011;42923;53.220;6.528;2023-06-14T07:29:38;6.35;;;2.45;;
52964;SDS011;42923;53.220;6.528;2023-06-14T07:32:04;7.65;;;2.83;;
52964;SDS011;42923;53.220;6.528;2023-06-14T07:34:30;10.27;;;2.42;;
52964;SDS011;42923;53.220;6.528;2023-06-14T07:36:56;7.55;;;2.35;;
52964;SDS011;42923;53.220;6.528;2023-06-14T07:39:22;3.92;;;2.53;;
52964;SDS011;42923;53.220;6.528;2023-06-14T07:41:48;7.50;;;2.78;;
52964;SDS011;42923;53.220;6.528;2023-06-14T07:44:14;4.93;;;2.60;;
52964;SDS011;42923;53.220;6.528;2023-06-14T07:46:41;3.47;;;2.47;;
52964;SDS011;42923;53.220;6.528;2023-06-14T07:49:06;6.22;;;2.75;;
52964;SDS011;42923;53.220;6.528;2023-06-14T07:51:32;6.22;;;2.67;;
52964;SDS011;42923;53.220;6.528;2023-06-14T07:53:59;8.73;;;2.75;;
52964;SDS011;42923;53.220;6.528;2023-06-14T07:56:28;6.20;;;2.03;;
52964;SDS011;42923;53.220;6.528;2023-06-14T07:58:54;3.72;;;2.25;;
52964;SDS011;42923;53.220;6.528;2023-06-14T08:01:19;3.05;;;1.92;;
52964;SDS011;42923;53.220;6.528;2023-06-14T08:03:45;4.13;;;2.38;;
52964;SDS011;42923;53.220;6.528;2023-06-14T08:06:11;8.73;;;2.00;;
52964;SDS011;42923;53.220;6.528;2023-06-14T08:08:37;4.63;;;2.67;;
52964;SDS011;42923;53.220;6.528;2023-06-14T08:11:02;3.45;;;2.25;;
52964;SDS011;42923;53.220;6.528;2023-06-14T08:13:28;5.07;;;2.53;;
52964;SDS011;42923;53.220;6.528;2023-06-14T08:15:54;6.78;;;2.55;;
52964;SDS011;42923;53.220;6.528;2023-06-14T08:18:22;7.75;;;2.65;;
52964;SDS011;42923;53.220;6.528;2023-06-14T08:20:48;2.97;;;2.17;;
52964;SDS011;42923;53.220;6.528;2023-06-14T08:23:13;7.93;;;2.55;;
52964;SDS011;42923;53.220;6.528;2023-06-14T08:25:39;3.00;;;2.08;;
52964;SDS011;42923;53.220;6.528;2023-06-14T08:28:05;5.63;;;2.35;;
52964;SDS011;42923;53.220;6.528;2023-06-14T08:30:31;4.32;;;2.30;;
52964;SDS011;42923;53.220;6.528;2023-06-14T08:32:57;5.90;;;2.42;;
52964;SDS011;42923;53.220;6.528;2023-06-14T08:35:22;3.10;;;1.77;;
52964;SDS011;42923;53.220;6.528;2023-06-14T08:37:48;3.75;;;2.13;;
52964;SDS011;42923;53.220;6.528;2023-06-14T08:40:18;5.93;;;3.15;;
52964;SDS011;42923;53.220;6.528;2023-06-14T08:42:52;4.75;;;1.80;;
52964;SDS011;42923;53.220;6.528;2023-06-14T08:45:20;3.70;;;1.90;;
52964;SDS011;42923;53.220;6.528;2023-06-14T08:47:47;5.88;;;2.05;;
52964;SDS011;42923;53.220;6.528;2023-06-14T08:50:20;11.25;;;2.20;;
52964;SDS011;42923;53.220;6.528;2023-06-14T08:52:48;4.65;;;2.08;;
52964;SDS011;42923;53.220;6.528;2023-06-14T08:55:18;4.13;;;2.22;;
52964;SDS011;42923;53.220;6.528;2023-06-14T08:57:46;3.75;;;1.90;;
52964;SDS011;42923;53.220;6.528;2023-06-14T09:00:15;6.30;;;2.05;;
52964;SDS011;42923;53.220;6.528;2023-06-14T09:02:42;5.07;;;2.20;;
52964;SDS011;42923;53.220;6.528;2023-06-14T09:05:14;4.78;;;2.10;;
52964;SDS011;42923;53.220;6.528;2023-06-14T09:07:43;2.50;;;2.15;;
52964;SDS011;42923;53.220;6.528;2023-06-14T09:10:10;11.57;;;2.42;;
52964;SDS011;42923;53.220;6.528;2023-06-14T09:12:37;6.03;;;2.17;;
52964;SDS011;42923;53.220;6.528;2023-06-14T09:15:04;3.30;;;2.10;;
52964;SDS011;42923;53.220;6.528;2023-06-14T09:17:34;5.78;;;2.22;;
52964;SDS011;42923;53.220;6.528;2023-06-14T09:20:01;16.73;;;3.88;;
52964;SDS011;42923;53.220;6.528;2023-06-14T09:22:31;3.13;;;1.92;;
52964;SDS011;42923;53.220;6.528;2023-06-14T09:24:58;4.25;;;2.13;;
52964;SDS011;42923;53.220;6.528;2023-06-14T09:27:28;7.28;;;2.25;;
52964;SDS011;42923;53.220;6.528;2023-06-14T09:29:54;4.95;;;2.30;;
52964;SDS011;42923;53.220;6.528;2023-06-14T09:32:20;6.50;;;2.90;;
52964;SDS011;42923;53.220;6.528;2023-06-14T09:34:46;5.57;;;2.40;;
52964;SDS011;42923;53.220;6.528;2023-06-14T09:37:12;5.80;;;2.38;;
52964;SDS011;42923;53.220;6.528;2023-06-14T09:39:50;2.40;;;2.20;;
52964;SDS011;42923;53.220;6.528;2023-06-14T09:42:17;4.28;;;1.85;;
52964;SDS011;42923;53.220;6.528;2023-06-14T09:44:49;3.05;;;2.42;;
52964;SDS011;42923;53.220;6.528;2023-06-14T09:47:24;3.28;;;1.80;;
52964;SDS011;42923;53.220;6.528;2023-06-14T09:49:50;6.72;;;2.00;;
52964;SDS011;42923;53.220;6.528;2023-06-14T09:52:19;2.13;;;1.90;;
52964;SDS011;42923;53.220;6.528;2023-06-14T09:54:46;6.53;;;2.00;;
52964;SDS011;42923;53.220;6.528;2023-06-14T09:57:15;6.20;;;2.20;;
52964;SDS011;42923;53.220;6.528;2023-06-14T09:59:45;8.73;;;2.20;;
52964;SDS011;42923;53.220;6.528;2023-06-14T10:04:50;7.50;;;2.40;;
52964;SDS011;42923;53.220;6.528;2023-06-14T10:07:26;5.13;;;1.75;;
52964;SDS011;42923;53.220;6.528;2023-06-14T10:09:56;4.60;;;2.20;;
52964;SDS011;42923;53.220;6.528;2023-06-14T10:12:22;7.55;;;2.33;;
52964;SDS011;42923;53.220;6.528;2023-06-14T10:14:49;7.03;;;2.03;;
52964;SDS011;42923;53.220;6.528;2023-06-14T10:23:02;6.57;;;2.23;;
52964;SDS011;42923;53.220;6.528;2023-06-14T10:25:34;5.40;;;2.20;;
52964;SDS011;42923;53.220;6.528;2023-06-14T10:30:37;2.97;;;1.80;;
52964;SDS011;42923;53.220;6.528;2023-06-14T10:33:04;4.60;;;2.10;;
52964;SDS011;42923;53.220;6.528;2023-06-14T10:35:31;5.22;;;2.20;;
52964;SDS011;42923;53.220;6.528;2023-06-14T10:38:06;4.80;;;1.58;;
52964;SDS011;42923;53.220;6.528;2023-06-14T10:40:33;7.65;;;1.80;;
52964;SDS011;42923;53.220;6.528;2023-06-14T10:43:00;2.88;;;2.20;;
52964;SDS011;42923;53.220;6.528;2023-06-14T10:45:25;3.15;;;1.90;;
52964;SDS011;42923;53.220;6.528;2023-06-14T10:47:51;2.42;;;1.90;;
52964;SDS011;42923;53.220;6.528;2023-06-14T10:50:19;4.40;;;2.30;;
52964;SDS011;42923;53.220;6.528;2023-06-14T10:52:56;7.10;;;2.45;;
52964;SDS011;42923;53.220;6.528;2023-06-14T10:55:21;6.43;;;1.90;;
52964;SDS011;42923;53.220;6.528;2023-06-14T11:00:18;4.88;;;2.50;;
52964;SDS011;42923;53.220;6.528;2023-06-14T11:05:35;4.33;;;2.00;;
52964;SDS011;42923;53.220;6.528;2023-06-14T11:10:50;5.30;;;2.22;;
52964;SDS011;42923;53.220;6.528;2023-06-14T11:13:19;6.57;;;2.10;;
52964;SDS011;42923;53.220;6.528;2023-06-14T11:15:49;3.85;;;1.80;;
52964;SDS011;42923;53.220;6.528;2023-06-14T11:18:18;2.88;;;1.90;;
52964;SDS011;42923;53.220;6.528;2023-06-14T11:20:45;4.20;;;2.60;;
52964;SDS011;42923;53.220;6.528;2023-06-14T11:23:11;3.65;;;1.95;;
52964;SDS011;42923;53.220;6.528;2023-06-14T11:25:37;2.28;;;2.08;;
52964;SDS011;42923;53.220;6.528;2023-06-14T11:28:03;6.25;;;2.10;;
52964;SDS011;42923;53.220;6.528;2023-06-14T11:30:28;2.70;;;1.70;;
52964;SDS011;42923;53.220;6.528;2023-06-14T11:32:55;3.90;;;2.03;;
52964;SDS011;42923;53.220;6.528;2023-06-14T11:35:22;6.38;;;1.90;;
52964;SDS011;42923;53.220;6.528;2023-06-14T11:37:48;2.58;;;1.80;;
52964;SDS011;42923;53.220;6.528;2023-06-14T11:40:17;3.60;;;1.95;;
52964;SDS011;42923;53.220;6.528;2023-06-14T11:42:43;8.43;;;2.10;;
52964;SDS011;42923;53.220;6.528;2023-06-14T11:45:09;2.30;;;1.55;;
52964;SDS011;42923;53.220;6.528;2023-06-14T11:47:36;4.05;;;1.65;;
52964;SDS011;42923;53.220;6.528;2023-06-14T11:50:06;1.40;;;1.30;;
52964;SDS011;42923;53.220;6.528;2023-06-14T11:52:36;3.13;;;1.70;;
52964;SDS011;42923;53.220;6.528;2023-06-14T11:55:02;7.63;;;1.50;;
52964;SDS011;42923;53.220;6.528;2023-06-14T11:57:35;3.97;;;1.70;;
52964;SDS011;42923;53.220;6.528;2023-06-14T12:00:04;2.10;;;1.48;;
52964;SDS011;42923;53.220;6.528;2023-06-14T12:02:39;1.98;;;1.48;;
52964;SDS011;42923;53.220;6.528;2023-06-14T12:05:06;4.07;;;1.42;;
52964;SDS011;42923;53.220;6.528;2023-06-14T12:07:35;5.60;;;1.70;;
52964;SDS011;42923;53.220;6.528;2023-06-14T12:12:34;3.45;;;1.70;;
52964;SDS011;42923;53.220;6.528;2023-06-14T12:15:05;3.28;;;1.70;;
52964;SDS011;42923;53.220;6.528;2023-06-14T12:17:35;3.83;;;1.90;;
52964;SDS011;42923;53.220;6.528;2023-06-14T12:20:07;4.07;;;1.70;;
52964;SDS011;42923;53.220;6.528;2023-06-14T12:22:51;3.83;;;2.15;;
52964;SDS011;42923;53.220;6.528;2023-06-14T12:27:52;4.05;;;1.55;;
52964;SDS011;42923;53.220;6.528;2023-06-14T12:30:21;3.72;;;1.55;;
52964;SDS011;42923;53.220;6.528;2023-06-14T12:32:47;2.95;;;1.77;;
52964;SDS011;42923;53.220;6.528;2023-06-14T12:35:13;5.68;;;1.92;;
52964;SDS011;42923;53.220;6.528;2023-06-14T12:37:40;5.07;;;1.70;;
52964;SDS011;42923;53.220;6.528;2023-06-14T12:40:06;4.55;;;1.40;;
52964;SDS011;42923;53.220;6.528;2023-06-14T12:42:33;3.65;;;1.45;;
52964;SDS011;42923;53.220;6.528;2023-06-14T12:44:59;3.70;;;1.42;;
52964;SDS011;42923;53.220;6.528;2023-06-14T12:47:25;5.55;;;1.85;;
52964;SDS011;42923;53.220;6.528;2023-06-14T12:49:51;2.05;;;1.70;;
52964;SDS011;42923;53.220;6.528;2023-06-14T12:52:17;4.28;;;2.10;;
52964;SDS011;42923;53.220;6.528;2023-06-14T12:54:43;3.08;;;1.48;;
52964;SDS011;42923;53.220;6.528;2023-06-14T12:57:09;3.25;;;1.92;;
52964;SDS011;42923;53.220;6.528;2023-06-14T12:59:35;4.07;;;2.20;;
52964;SDS011;42923;53.220;6.528;2023-06-14T13:02:11;4.10;;;1.80;;
52964;SDS011;42923;53.220;6.528;2023-06-14T13:04:43;5.15;;;1.33;;
52964;SDS011;42923;53.220;6.528;2023-06-14T13:07:09;2.78;;;1.42;;
52964;SDS011;42923;53.220;6.528;2023-06-14T13:09:36;5.20;;;1.60;;
52964;SDS011;42923;53.220;6.528;2023-06-14T13:12:02;6.20;;;1.70;;
52964;SDS011;42923;53.220;6.528;2023-06-14T13:14:28;5.90;;;1.55;;
52964;SDS011;42923;53.220;6.528;2023-06-14T13:16:54;2.58;;;1.45;;
52964;SDS011;42923;53.220;6.528;2023-06-14T13:19:20;3.92;;;1.70;;
52964;SDS011;42923;53.220;6.528;2023-06-14T13:21:46;1.73;;;1.50;;
52964;SDS011;42923;53.220;6.528;2023-06-14T13:24:12;3.60;;;1.80;;
52964;SDS011;42923;53.220;6.528;2023-06-14T13:26:38;4.10;;;1.80;;
52964;SDS011;42923;53.220;6.528;2023-06-14T13:29:03;3.22;;;1.70;;
52964;SDS011;42923;53.220;6.528;2023-06-14T13:31:29;2.53;;;1.80;;
52964;SDS011;42923;53.220;6.528;2023-06-14T13:33:55;2.47;;;1.55;;
52964;SDS011;42923;53.220;6.528;2023-06-14T13:36:21;6.05;;;2.10;;
52964;SDS011;42923;53.220;6.528;2023-06-14T13:38:47;3.17;;;1.90;;
52964;SDS011;42923;53.220;6.528;2023-06-14T13:41:12;1.92;;;1.60;;
52964;SDS011;42923;53.220;6.528;2023-06-14T13:43:38;2.85;;;1.63;;
52964;SDS011;42923;53.220;6.528;2023-06-14T13:46:04;3.47;;;1.65;;
52964;SDS011;42923;53.220;6.528;2023-06-14T13:48:30;4.63;;;1.60;;
52964;SDS011;42923;53.220;6.528;2023-06-14T13:50:55;2.45;;;2.00;;
52964;SDS011;42923;53.220;6.528;2023-06-14T13:53:22;1.98;;;1.67;;
52964;SDS011;42923;53.220;6.528;2023-06-14T13:55:48;2.53;;;1.50;;
52964;SDS011;42923;53.220;6.528;2023-06-14T13:58:14;3.92;;;2.00;;
52964;SDS011;42923;53.220;6.528;2023-06-14T14:00:40;2.22;;;1.63;;
52964;SDS011;42923;53.220;6.528;2023-06-14T14:03:08;1.98;;;1.67;;
52964;SDS011;42923;53.220;6.528;2023-06-14T14:05:34;2.17;;;1.88;;
52964;SDS011;42923;53.220;6.528;2023-06-14T14:08:00;6.55;;;2.10;;
52964;SDS011;42923;53.220;6.528;2023-06-14T14:10:25;6.55;;;2.63;;
52964;SDS011;42923;53.220;6.528;2023-06-14T14:12:51;2.95;;;1.50;;
52964;SDS011;42923;53.220;6.528;2023-06-14T14:15:18;2.65;;;1.65;;
52964;SDS011;42923;53.220;6.528;2023-06-14T14:17:44;1.92;;;1.65;;
52964;SDS011;42923;53.220;6.528;2023-06-14T14:20:10;6.57;;;1.80;;
52964;SDS011;42923;53.220;6.528;2023-06-14T14:22:39;4.50;;;1.48;;
52964;SDS011;42923;53.220;6.528;2023-06-14T14:25:06;5.35;;;1.90;;
52964;SDS011;42923;53.220;6.528;2023-06-14T14:27:32;9.10;;;2.05;;
52964;SDS011;42923;53.220;6.528;2023-06-14T14:29:57;5.07;;;1.88;;
52964;SDS011;42923;53.220;6.528;2023-06-14T14:32:23;3.63;;;1.77;;
52964;SDS011;42923;53.220;6.528;2023-06-14T14:34:49;2.97;;;2.30;;
52964;SDS011;42923;53.220;6.528;2023-06-14T14:37:15;4.22;;;2.08;;
52964;SDS011;42923;53.220;6.528;2023-06-14T14:39:41;4.03;;;1.77;;
52964;SDS011;42923;53.220;6.528;2023-06-14T14:42:07;2.33;;;1.85;;
52964;SDS011;42923;53.220;6.528;2023-06-14T14:44:33;5.90;;;1.90;;
52964;SDS011;42923;53.220;6.528;2023-06-14T14:46:59;4.55;;;1.67;;
52964;SDS011;42923;53.220;6.528;2023-06-14T14:49:24;4.15;;;2.25;;
52964;SDS011;42923;53.220;6.528;2023-06-14T14:51:50;3.03;;;1.65;;
52964;SDS011;42923;53.220;6.528;2023-06-14T14:54:16;1.50;;;1.40;;
52964;SDS011;42923;53.220;6.528;2023-06-14T14:56:41;2.70;;;1.95;;
52964;SDS011;42923;53.220;6.528;2023-06-14T14:59:07;2.03;;;1.83;;
52964;SDS011;42923;53.220;6.528;2023-06-14T15:01:33;4.88;;;1.85;;
52964;SDS011;42923;53.220;6.528;2023-06-14T15:03:58;4.38;;;2.28;;
52964;SDS011;42923;53.220;6.528;2023-06-14T15:06:24;2.08;;;1.73;;
52964;SDS011;42923;53.220;6.528;2023-06-14T15:08:50;4.80;;;2.13;;
52964;SDS011;42923;53.220;6.528;2023-06-14T15:11:16;4.15;;;1.80;;
52964;SDS011;42923;53.220;6.528;2023-06-14T15:13:42;10.98;;;1.90;;
52964;SDS011;42923;53.220;6.528;2023-06-14T15:16:07;6.15;;;2.03;;